Time;durP1;ratioP1;P1;durP2;ratioP2;P2;SDS_P1;SDS_P2;PMS_P1;PMS_P2;Temp;Humidity;BMP_temperature;BMP_pressure;BME280_temperature;BME280_humidity;BME280_pressure;Samples;Min_cycle;Max_cycle;Signal;HPM_P1;HPM_P2
2020/12/08 00:00:40;;;;;;;12.30;8.80;;;;;;;7.06;70.94;99419.81;4395645;32;33604;-56
2020/12/08 00:03:07;;;;;;;14.00;9.40;;;;;;;6.44;72.75;99422.81;4386858;32;35871;-54
2020/12/08 00:05:34;;;;;;;13.23;8.90;;;;;;;6.37;73.36;99412.53;4392760;32;34284;-51
2020/12/08 00:08:04;;;;;;;13.07;9.15;;;;;;;6.73;72.43;99412.19;4392929;32;33196;-54
2020/12/08 00:10:32;;;;;;;13.05;9.15;;;;;;;7.00;71.38;99399.87;4379520;32;34383;-54
2020/12/08 00:12:59;;;;;;;14.68;9.30;;;;;;;7.03;70.65;99406.81;4392927;32;35018;-51
2020/12/08 00:15:26;;;;;;;14.30;9.05;;;;;;;6.93;71.33;99417.62;4391445;32;34152;-52
2020/12/08 00:17:54;;;;;;;13.43;8.38;;;;;;;6.92;71.55;99415.91;4391577;32;34125;-55
2020/12/08 00:20:22;;;;;;;12.10;8.50;;;;;;;6.90;71.75;99425.59;4377802;32;33584;-55
2020/12/08 00:22:49;;;;;;;13.38;9.18;;;;;;;6.97;71.50;99422.75;4379946;32;34562;-53
2020/12/08 00:25:17;;;;;;;10.88;8.68;;;;;;;7.05;70.80;99423.34;4379510;32;34396;-51
2020/12/08 00:27:44;;;;;;;13.55;8.95;;;;;;;6.78;71.76;99433.88;4378930;32;31828;-52
2020/12/08 00:30:13;;;;;;;11.70;9.10;;;;;;;6.51;72.88;99421.72;4377875;32;33412;-53
2020/12/08 00:32:42;;;;;;;13.85;9.25;;;;;;;7.12;70.95;99416.94;4387921;32;34707;-52
2020/12/08 00:35:10;;;;;;;15.07;9.15;;;;;;;6.89;71.81;99428.28;4392787;32;34268;-52
2020/12/08 00:37:42;;;;;;;12.20;8.68;;;;;;;7.02;71.06;99426.06;4389090;32;34128;-53
2020/12/08 00:40:11;;;;;;;16.12;10.20;;;;;;;7.11;70.47;99425.75;4377641;32;33555;-56
2020/12/08 00:42:39;;;;;;;14.43;8.90;;;;;;;6.95;71.58;99419.34;4377317;32;34792;-57
2020/12/08 00:45:12;;;;;;;12.05;8.02;;;;;;;7.02;71.17;99428.69;4366824;32;33785;-58
2020/12/08 00:47:40;;;;;;;17.33;8.68;;;;;;;6.65;72.29;99425.59;4393091;32;33357;-58
2020/12/08 00:50:07;;;;;;;11.60;7.28;;;;;;;7.06;71.14;99423.28;4376323;32;34757;-58
2020/12/08 00:52:35;;;;;;;11.43;8.18;;;;;;;7.31;69.89;99418.03;4363984;32;35528;-57
2020/12/08 00:55:08;;;;;;;10.05;7.82;;;;;;;6.99;70.81;99420.94;4366199;32;34913;-56
2020/12/08 00:57:35;;;;;;;16.52;8.45;;;;;;;7.31;69.66;99425.91;4379596;32;33036;-53
2020/12/08 01:00:05;;;;;;;14.02;8.15;;;;;;;7.24;69.82;99424.41;4379151;32;33709;-54
2020/12/08 01:02:34;;;;;;;14.45;9.30;;;;;;;6.74;71.78;99434.91;4378929;32;35657;-54
2020/12/08 01:05:02;;;;;;;13.40;8.32;;;;;;;6.84;71.54;99424.97;4392710;32;33989;-53
2020/12/08 01:07:29;;;;;;;13.27;9.02;;;;;;;6.81;71.49;99425.06;4391794;32;33704;-52
2020/12/08 01:09:57;;;;;;;15.75;9.13;;;;;;;6.79;71.78;99424.25;4378755;32;32717;-52
2020/12/08 01:12:25;;;;;;;14.10;9.13;;;;;;;6.56;72.34;99425.91;4391898;32;34822;-52
2020/12/08 01:14:52;;;;;;;13.23;8.65;;;;;;;7.05;71.12;99423.34;4392923;32;34318;-55
2020/12/08 01:17:19;;;;;;;14.52;8.75;;;;;;;6.59;72.46;99424.91;4391691;32;34028;-55
2020/12/08 01:19:47;;;;;;;17.87;8.60;;;;;;;6.82;71.51;99418.91;4379122;32;34454;-54
2020/12/08 01:22:15;;;;;;;17.98;8.77;;;;;;;6.95;71.19;99414.09;4392097;32;34140;-53
2020/12/08 01:24:42;;;;;;;15.35;10.02;;;;;;;6.58;72.36;99418.81;4379057;32;34195;-51
2020/12/08 01:27:10;;;;;;;15.55;9.20;;;;;;;6.63;72.02;99424.78;4378879;32;33149;-51
2020/12/08 01:29:37;;;;;;;17.80;10.07;;;;;;;6.58;72.22;99410.09;4392506;32;34318;-50
2020/12/08 01:32:06;;;;;;;14.77;9.10;;;;;;;6.49;72.91;99407.78;4392051;32;34605;-53
2020/12/08 01:34:34;;;;;;;17.98;10.60;;;;;;;6.37;73.29;99402.03;4391436;32;34472;-51
2020/12/08 01:37:01;;;;;;;14.50;9.52;;;;;;;6.60;72.47;99401.28;4392610;32;33311;-52
2020/12/08 01:39:30;;;;;;;20.42;11.98;;;;;;;6.77;71.88;99405.94;4377017;32;33588;-51
2020/12/08 01:41:58;;;;;;;18.23;10.55;;;;;;;6.95;71.03;99411.47;4363618;32;34477;-51
2020/12/08 01:44:26;;;;;;;17.70;10.52;;;;;;;6.51;72.78;99408.59;4364539;32;33972;-55
2020/12/08 01:46:54;;;;;;;17.67;11.32;;;;;;;6.81;71.80;99407.56;4377264;32;33247;-52
2020/12/08 01:49:22;;;;;;;17.92;11.15;;;;;;;6.53;72.96;99410.25;4386205;32;33719;-52
2020/12/08 01:51:50;;;;;;;17.87;12.10;;;;;;;6.50;73.10;99412.97;4378997;32;34751;-54
2020/12/08 01:54:18;;;;;;;18.33;11.18;;;;;;;6.96;71.49;99413.16;4383802;32;34405;-53
2020/12/08 01:56:46;;;;;;;18.30;11.68;;;;;;;6.70;72.31;99409.69;4364092;32;33540;-52
2020/12/08 01:59:15;;;;;;;18.58;11.68;;;;;;;6.39;73.33;99429.06;4363776;32;33897;-54
2020/12/08 02:01:43;;;;;;;18.58;11.77;;;;;;;6.28;73.70;99423.31;4364008;32;35715;-54
2020/12/08 02:04:11;;;;;;;21.30;12.13;;;;;;;6.34;73.83;99422.25;4377558;32;34078;-53
2020/12/08 02:06:39;;;;;;;19.05;11.35;;;;;;;6.54;72.57;99413.72;4392504;32;33397;-53
2020/12/08 02:09:06;;;;;;;16.85;11.30;;;;;;;6.61;72.21;99415.25;4392144;32;34581;-55
2020/12/08 02:11:33;;;;;;;18.25;10.48;;;;;;;6.61;72.48;99423.13;4390835;32;34891;-54
2020/12/08 02:14:01;;;;;;;23.20;12.05;;;;;;;6.66;72.51;99423.81;4377856;32;33965;-51
2020/12/08 02:16:28;;;;;;;14.82;9.98;;;;;;;6.47;72.79;99423.56;4392358;32;34188;-54
2020/12/08 02:18:56;;;;;;;17.62;10.80;;;;;;;6.79;71.47;99417.25;4391663;32;33452;-52
2020/12/08 02:21:33;;;;;;;23.02;12.02;;;;;;;6.72;71.64;99417.50;4391832;32;35748;-54
2020/12/08 02:24:02;;;;;;;24.42;12.32;;;;;;;6.28;73.64;99433.81;4377954;32;34263;-55
2020/12/08 02:26:29;;;;;;;20.67;12.30;;;;;;;6.20;73.95;99434.94;4388610;32;33451;-52
2020/12/08 02:28:57;;;;;;;22.62;12.73;;;;;;;6.10;74.35;99429.13;4375791;32;34329;-53
2020/12/08 02:31:25;;;;;;;26.98;12.25;;;;;;;6.18;74.12;99426.28;4376521;32;35678;-51
2020/12/08 02:33:52;;;;;;;21.35;11.90;;;;;;;6.45;73.47;99435.00;4375167;32;34211;-52
2020/12/08 02:36:20;;;;;;;24.67;12.75;;;;;;;6.25;73.70;99433.88;4375279;32;33361;-52
2020/12/08 02:38:48;;;;;;;21.83;11.70;;;;;;;6.33;73.64;99425.78;4362979;32;33686;-55
2020/12/08 02:41:15;;;;;;;18.00;11.48;;;;;;;6.92;71.47;99425.53;4363061;32;34458;-51
2020/12/08 02:43:42;;;;;;;18.05;11.85;;;;;;;7.06;70.92;99417.19;4372823;32;34900;-53
2020/12/08 02:46:10;;;;;;;18.55;11.60;;;;;;;6.89;71.09;99409.91;4375330;32;34503;-56
2020/12/08 02:48:38;;;;;;;15.45;11.15;;;;;;;6.83;71.27;99415.34;4375427;32;33190;-57
2020/12/08 02:51:06;;;;;;;15.20;10.48;;;;;;;6.16;73.99;99415.84;4375418;32;35758;-57
2020/12/08 02:53:35;;;;;;;16.20;11.43;;;;;;;6.31;73.31;99427.59;4376544;32;34174;-57
2020/12/08 02:56:03;;;;;;;15.10;11.10;;;;;;;6.56;72.83;99427.66;4384797;32;31932;-55
2020/12/08 02:58:30;;;;;;;22.13;11.18;;;;;;;6.72;72.02;99420.97;4376554;32;33850;-57
2020/12/08 03:00:59;;;;;;;20.77;11.48;;;;;;;6.80;71.82;99415.47;4376435;32;34376;-53
2020/12/08 03:03:26;;;;;;;18.87;10.65;;;;;;;6.75;71.92;99418.25;4362981;32;35057;-55
2020/12/08 03:05:53;;;;;;;21.58;12.20;;;;;;;6.25;73.50;99422.56;4366298;32;33308;-55
2020/12/08 03:08:20;;;;;;;21.50;12.02;;;;;;;6.55;72.71;99415.44;4376396;32;33768;-51
2020/12/08 03:10:48;;;;;;;18.70;10.25;;;;;;;6.52;72.47;99418.19;4375885;32;35355;-54
2020/12/08 03:13:16;;;;;;;21.33;10.05;;;;;;;6.67;71.92;99415.88;4375360;32;34223;-53
2020/12/08 03:15:44;;;;;;;18.48;9.77;;;;;;;6.55;72.21;99421.56;4350402;32;32907;-52
2020/12/08 03:18:13;;;;;;;16.50;9.30;;;;;;;6.38;73.02;99439.63;4389122;32;33646;-50
2020/12/08 03:20:40;;;;;;;11.38;8.30;;;;;;;6.51;72.59;99440.06;4377457;32;35024;-51
2020/12/08 03:23:08;;;;;;;14.87;9.60;;;;;;;6.74;71.79;99432.31;4391365;32;34858;-51
2020/12/08 03:25:35;;;;;;;13.90;8.88;;;;;;;6.70;71.48;99435.94;4378359;32;34270;-52
2020/12/08 03:28:03;;;;;;;14.07;8.00;;;;;;;5.97;74.19;99430.41;4375890;32;34333;-55
2020/12/08 03:30:33;;;;;;;14.70;9.07;;;;;;;6.32;72.90;99429.34;4375869;32;35593;-52
2020/12/08 03:33:01;;;;;;;16.08;8.85;;;;;;;6.22;73.48;99425.25;4376037;32;34121;-50
2020/12/08 03:35:29;;;;;;;16.42;9.00;;;;;;;5.99;74.41;99433.88;4376659;32;33709;-51
2020/12/08 03:37:57;;;;;;;14.98;9.10;;;;;;;6.25;73.28;99428.66;4378461;32;34286;-51
2020/12/08 03:40:24;;;;;;;16.75;10.70;;;;;;;6.44;72.76;99426.28;4377061;32;34667;-53
2020/12/08 03:42:53;;;;;;;14.40;10.38;;;;;;;6.38;72.85;99434.38;4376837;32;34695;-50
2020/12/08 03:45:21;;;;;;;13.23;9.40;;;;;;;6.25;73.13;99439.13;4376964;32;33017;-52
2020/12/08 03:47:49;;;;;;;18.87;10.75;;;;;;;6.35;72.96;99442.31;4364807;32;33635;-51
2020/12/08 03:50:17;;;;;;;20.00;10.13;;;;;;;6.09;74.17;99464.97;4377208;32;34655;-52
2020/12/08 03:52:44;;;;;;;18.20;10.32;;;;;;;6.03;73.89;99453.81;4377703;32;34161;-51
2020/12/08 03:55:13;;;;;;;23.25;11.45;;;;;;;6.17;73.42;99449.00;4378037;32;33344;-52
2020/12/08 03:57:40;;;;;;;17.48;10.52;;;;;;;6.09;73.54;99453.66;4364627;32;34619;-51
2020/12/08 04:00:09;;;;;;;26.48;10.93;;;;;;;6.18;73.34;99463.00;4371219;32;35847;-54
2020/12/08 04:02:39;;;;;;;19.95;11.32;;;;;;;6.19;73.31;99459.47;4391986;32;34131;-54
2020/12/08 04:05:08;;;;;;;20.23;10.65;;;;;;;6.25;73.11;99465.34;4393049;32;32986;-51
2020/12/08 04:07:40;;;;;;;17.62;11.07;;;;;;;6.58;72.31;99460.78;4391907;32;33953;-55
2020/12/08 04:10:07;;;;;;;16.23;10.68;;;;;;;6.81;71.58;99459.19;4379505;32;34774;-51
2020/12/08 04:12:35;;;;;;;21.00;10.95;;;;;;;6.39;72.77;99468.41;4392939;32;34314;-54
2020/12/08 04:15:02;;;;;;;18.17;10.43;;;;;;;6.57;72.30;99460.84;4393095;32;33488;-54
2020/12/08 04:17:30;;;;;;;15.27;10.02;;;;;;;6.60;71.91;99466.00;4392866;32;33630;-56
2020/12/08 04:19:59;;;;;;;19.00;10.13;;;;;;;6.58;72.15;99462.56;4379491;32;35765;-53
2020/12/08 04:22:27;;;;;;;13.88;9.90;;;;;;;6.54;72.07;99456.56;4393105;32;34192;-52
2020/12/08 04:24:54;;;;;;;17.30;10.93;;;;;;;6.78;71.34;99460.13;4379294;32;34171;-52
2020/12/08 04:27:22;;;;;;;15.60;10.85;;;;;;;6.62;71.88;99454.53;4393270;32;33558;-55
2020/12/08 04:29:49;;;;;;;15.45;11.20;;;;;;;6.63;71.79;99465.88;4379017;32;34700;-53
2020/12/08 04:32:18;;;;;;;18.08;10.40;;;;;;;6.38;72.54;99463.22;4392620;32;34230;-52
2020/12/08 04:34:45;;;;;;;16.15;11.32;;;;;;;6.48;72.46;99466.41;4379131;32;33554;-51
2020/12/08 04:37:12;;;;;;;19.00;10.30;;;;;;;6.21;72.97;99461.09;4391666;32;33652;-55
2020/12/08 04:39:39;;;;;;;19.62;10.45;;;;;;;5.93;74.44;99462.88;4378944;32;34638;-52
2020/12/08 04:42:07;;;;;;;17.95;11.35;;;;;;;6.00;74.40;99459.16;4392781;32;34495;-57
2020/12/08 04:44:34;;;;;;;21.42;11.40;;;;;;;5.74;74.97;99450.28;4378961;32;34165;-53
2020/12/08 04:47:05;;;;;;;18.33;11.95;;;;;;;5.93;74.32;99452.37;4378381;32;32706;-52
2020/12/08 04:49:32;;;;;;;17.80;10.00;;;;;;;6.40;72.50;99466.63;4392635;32;34885;-54
2020/12/08 04:52:00;;;;;;;18.77;11.52;;;;;;;6.20;72.71;99477.75;4379070;32;33913;-56
2020/12/08 04:54:27;;;;;;;26.62;11.48;;;;;;;5.69;75.05;99475.75;4392535;32;33166;-56
2020/12/08 04:56:54;;;;;;;18.90;11.27;;;;;;;6.09;73.54;99472.00;4378903;32;34547;-52
2020/12/08 04:59:23;;;;;;;19.73;12.60;;;;;;;5.97;74.04;99469.72;4391352;32;34925;-57
2020/12/08 05:01:51;;;;;;;18.87;12.25;;;;;;;5.57;75.79;99476.13;4379239;32;34330;-57
2020/12/08 05:04:22;;;;;;;22.52;12.90;;;;;;;5.48;76.38;99479.84;4392729;32;33521;-56
2020/12/08 05:07:06;;;;;;;21.25;12.77;;;;;;;6.03;74.28;99474.78;4392175;32;33885;-57
2020/12/08 05:09:46;;;;;;;20.75;11.88;;;;;;;5.79;74.78;99482.47;4391215;32;34952;-57
2020/12/08 05:12:24;;;;;;;27.95;12.60;;;;;;;5.83;74.61;99485.84;4392353;32;34914;-56
2020/12/08 05:14:51;;;;;;;32.15;14.05;;;;;;;5.82;74.96;99492.84;4388609;32;34254;-54
2020/12/08 05:17:26;;;;;;;26.37;13.75;;;;;;;5.99;74.15;99488.91;4376276;32;33819;-53
2020/12/08 05:20:08;;;;;;;25.20;14.10;;;;;;;6.20;73.26;99492.63;4376241;32;34665;-50
2020/12/08 05:22:36;;;;;;;28.55;13.88;;;;;;;5.21;76.82;99502.41;4377187;32;35050;-53
2020/12/08 05:25:21;;;;;;;22.67;14.02;;;;;;;5.31;76.48;99500.38;4384299;32;33171;-52
2020/12/08 05:27:50;;;;;;;27.13;14.07;;;;;;;5.47;75.76;99506.94;4392044;32;34420;-52
2020/12/08 05:30:18;;;;;;;24.45;13.55;;;;;;;5.98;74.15;99500.28;4378823;32;34716;-51
2020/12/08 05:32:46;;;;;;;25.10;14.18;;;;;;;5.88;74.16;99495.25;4391888;32;34479;-51
2020/12/08 05:35:15;;;;;;;18.37;11.68;;;;;;;5.82;74.38;99500.69;4366256;32;32601;-52
2020/12/08 05:37:49;;;;;;;17.90;10.82;;;;;;;5.76;74.48;99502.66;4377457;32;32161;-54
2020/12/08 05:40:19;;;;;;;17.45;11.70;;;;;;;5.93;73.58;99510.03;4391410;32;34964;-51
2020/12/08 05:42:48;;;;;;;18.77;11.57;;;;;;;5.51;74.88;99521.69;4392131;32;34526;-50
2020/12/08 05:45:17;;;;;;;20.08;11.32;;;;;;;4.94;76.99;99522.31;4391289;32;34005;-53
2020/12/08 05:47:44;;;;;;;22.37;12.88;;;;;;;5.26;76.14;99520.59;4378542;32;34664;-54
2020/12/08 05:50:11;;;;;;;19.40;10.77;;;;;;;5.46;75.62;99520.06;4391638;32;34924;-50
2020/12/08 05:52:45;;;;;;;20.35;11.45;;;;;;;5.59;74.69;99513.59;4378609;32;34427;-53
2020/12/08 05:55:16;;;;;;;26.08;13.52;;;;;;;5.45;75.41;99518.34;4390294;32;33037;-53
2020/12/08 05:57:44;;;;;;;21.37;13.43;;;;;;;5.17;76.25;99519.09;4391150;32;34761;-52
2020/12/08 06:00:20;;;;;;;20.05;12.85;;;;;;;5.38;75.74;99525.53;4391848;32;34569;-54
2020/12/08 06:10:10;;;;;;;20.02;13.25;;;;;;;5.88;73.82;99512.75;4388805;32;33444;-43
2020/12/08 06:13:21;;;;;;;17.83;13.10;;;;;;;5.64;74.58;99533.50;4356890;32;34424;-43
2020/12/08 06:16:05;;;;;;;19.05;12.02;;;;;;;5.61;74.61;99530.13;4373063;32;34075;-42
2020/12/08 06:18:43;;;;;;;21.77;14.68;;;;;;;5.27;75.86;99538.91;4387740;32;33320;-42
2020/12/08 06:21:26;;;;;;;22.73;15.02;;;;;;;5.42;75.55;99549.88;4389590;32;32594;-43
2020/12/08 06:23:59;;;;;;;18.92;12.90;;;;;;;5.33;76.00;99558.81;4380422;32;35138;-41
2020/12/08 06:26:34;;;;;;;22.10;15.68;;;;;;;5.82;74.29;99544.37;4386088;32;34207;-42
2020/12/08 06:29:13;;;;;;;22.05;15.07;;;;;;;4.94;77.35;99552.81;4394084;32;32980;-42
2020/12/08 06:31:47;;;;;;;24.35;13.73;;;;;;;5.43;75.19;99555.06;4403936;32;33685;-43
2020/12/08 06:34:31;;;;;;;24.10;13.40;;;;;;;5.38;75.13;99559.56;4378099;32;33685;-41
2020/12/08 06:37:09;;;;;;;28.95;15.18;;;;;;;5.52;74.72;99562.66;4391196;32;34451;-42
2020/12/08 06:39:37;;;;;;;25.77;14.73;;;;;;;5.20;76.08;99571.34;4394022;32;34828;-43
2020/12/08 06:42:13;;;;;;;23.98;13.88;;;;;;;5.14;76.22;99577.62;4403178;32;34682;-42
2020/12/08 06:44:40;;;;;;;28.33;14.77;;;;;;;5.24;75.62;99578.25;4393324;32;34994;-42
2020/12/08 06:47:08;;;;;;;33.08;15.98;;;;;;;5.10;76.15;99588.19;4404166;32;34475;-42
2020/12/08 06:49:39;;;;;;;25.58;15.95;;;;;;;5.19;75.73;99582.75;4393812;32;33186;-44
2020/12/08 06:52:10;;;;;;;25.62;14.38;;;;;;;5.29;75.49;99586.84;4393020;32;34569;-41
2020/12/08 06:54:40;;;;;;;25.20;13.82;;;;;;;5.22;75.51;99580.06;4377279;32;35639;-47
2020/12/08 06:57:08;;;;;;;29.15;15.45;;;;;;;4.97;76.30;99563.22;4378777;32;33590;-43
2020/12/08 06:59:38;;;;;;;33.13;16.42;;;;;;;5.45;74.18;99553.25;4404396;32;33605;-43
2020/12/08 07:02:06;;;;;;;26.15;14.27;;;;;;;4.95;76.15;99557.19;4405241;32;33514;-42
2020/12/08 07:04:34;;;;;;;25.15;15.48;;;;;;;4.94;76.34;99560.66;4405778;32;34993;-44
2020/12/08 07:07:03;;;;;;;31.30;16.95;;;;;;;5.02;76.45;99582.28;4388684;32;33252;-41
2020/12/08 07:09:34;;;;;;;28.42;15.82;;;;;;;5.24;74.93;99583.47;4392121;32;33348;-44
2020/12/08 07:12:07;;;;;;;27.30;13.68;;;;;;;5.07;75.50;99575.19;4369481;32;32494;-41
2020/12/08 07:14:38;;;;;;;25.77;13.02;;;;;;;5.19;74.48;99566.19;4399502;32;34974;-42
2020/12/08 07:17:11;;;;;;;26.52;13.73;;;;;;;4.81;76.25;99568.84;4353936;32;34892;-41
2020/12/08 07:19:39;;;;;;;26.25;13.88;;;;;;;5.07;74.75;99580.41;4402659;32;33022;-41
2020/12/08 07:22:08;;;;;;;23.80;13.60;;;;;;;4.94;75.07;99579.88;4402567;32;34356;-41
2020/12/08 07:24:47;;;;;;;28.48;13.30;;;;;;;5.02;74.41;99577.06;4406773;32;35492;-41
2020/12/08 07:27:17;;;;;;;32.03;13.75;;;;;;;4.70;75.92;99576.09;4371450;32;33167;-45
2020/12/08 07:29:47;;;;;;;31.37;13.73;;;;;;;4.80;76.12;99572.34;4393718;32;34151;-41
2020/12/08 07:32:27;;;;;;;24.73;13.13;;;;;;;5.28;74.17;99574.66;4406567;32;33402;-40
2020/12/08 07:34:55;;;;;;;25.75;14.27;;;;;;;5.35;73.51;99565.72;4404954;32;34707;-43
2020/12/08 07:37:23;;;;;;;24.48;12.52;;;;;;;4.79;75.72;99565.38;4407316;32;34814;-41
2020/12/08 07:39:53;;;;;;;27.58;12.68;;;;;;;4.86;75.46;99566.97;4392205;32;33214;-41
2020/12/08 07:42:21;;;;;;;25.12;14.30;;;;;;;4.82;76.12;99574.94;4405655;32;33138;-41
2020/12/08 07:44:58;;;;;;;27.60;13.32;;;;;;;5.04;75.57;99585.75;4391179;32;33804;-41
2020/12/08 07:47:25;;;;;;;30.08;15.05;;;;;;;5.15;74.88;99583.72;4407055;32;34044;-41
2020/12/08 07:49:53;;;;;;;33.28;14.87;;;;;;;4.91;75.65;99594.78;4392766;32;34511;-41
2020/12/08 07:52:20;;;;;;;33.63;16.23;;;;;;;5.08;75.14;99595.22;4408146;32;34342;-43
2020/12/08 07:54:47;;;;;;;30.73;14.30;;;;;;;4.95;75.92;99599.03;4393688;32;34931;-41
2020/12/08 07:57:14;;;;;;;34.45;17.92;;;;;;;5.24;74.89;99598.31;4406475;32;33956;-43
2020/12/08 07:59:42;;;;;;;39.88;19.65;;;;;;;5.55;73.86;99596.63;4405742;32;33434;-40
2020/12/08 08:02:09;;;;;;;39.70;15.27;;;;;;;5.49;74.23;99603.78;4391706;32;34338;-42
2020/12/08 08:04:36;;;;;;;37.67;17.08;;;;;;;5.59;73.79;99602.63;4406913;32;34831;-48
2020/12/08 08:07:03;;;;;;;32.10;14.98;;;;;;;5.75;73.13;99601.34;4406149;32;34362;-41
2020/12/08 08:09:32;;;;;;;28.42;14.60;;;;;;;6.00;72.46;99612.03;4406643;32;33403;-41
2020/12/08 08:12:01;;;;;;;33.15;14.93;;;;;;;5.99;72.08;99609.47;4405031;32;34189;-41
2020/12/08 08:14:28;;;;;;;29.98;14.10;;;;;;;5.37;74.48;99620.69;4405314;32;34851;-40
2020/12/08 08:17:09;;;;;;;29.77;14.73;;;;;;;5.69;73.05;99617.22;4376326;32;34607;-42
2020/12/08 08:19:36;;;;;;;37.03;16.48;;;;;;;4.99;76.09;99621.63;4385858;32;33618;-40
2020/12/08 08:22:03;;;;;;;33.42;15.82;;;;;;;5.45;74.52;99625.72;4384080;32;34488;-41
2020/12/08 08:24:31;;;;;;;31.75;16.65;;;;;;;5.44;74.04;99624.00;4392657;32;34843;-43
2020/12/08 08:26:58;;;;;;;37.15;15.50;;;;;;;5.90;72.10;99621.88;4391882;32;34984;-44
2020/12/08 08:29:26;;;;;;;37.28;17.02;;;;;;;5.27;74.17;99630.53;4400439;32;32875;-40
2020/12/08 08:31:53;;;;;;;37.70;17.27;;;;;;;5.40;74.21;99626.69;4399046;32;34729;-41
2020/12/08 08:34:22;;;;;;;29.63;16.05;;;;;;;5.26;74.72;99634.03;4400100;32;35427;-42
2020/12/08 08:36:50;;;;;;;33.92;16.02;;;;;;;5.21;74.79;99641.13;4405696;32;34031;-42
2020/12/08 08:39:19;;;;;;;29.58;15.65;;;;;;;5.15;74.45;99641.28;4386965;32;34063;-40
2020/12/08 08:41:46;;;;;;;31.50;13.90;;;;;;;5.14;74.13;99637.81;4405476;32;34397;-47
2020/12/08 08:44:14;;;;;;;21.02;12.35;;;;;;;5.51;72.96;99630.81;4388980;32;34553;-41
2020/12/08 08:46:44;;;;;;;19.85;11.10;;;;;;;5.29;73.74;99620.00;4406702;32;33932;-42
2020/12/08 08:49:16;;;;;;;15.05;9.68;;;;;;;5.59;72.18;99623.59;4406046;32;34039;-41
2020/12/08 08:51:46;;;;;;;13.13;8.55;;;;;;;5.36;72.43;99619.84;4396387;32;33131;-41
2020/12/08 08:54:16;;;;;;;15.77;8.32;;;;;;;5.14;72.92;99613.41;4391723;32;33725;-43
2020/12/08 08:56:43;;;;;;;10.43;8.15;;;;;;;5.16;73.51;99606.34;4394102;32;34569;-44
2020/12/08 08:59:11;;;;;;;10.98;8.10;;;;;;;5.12;74.15;99602.94;4390077;32;33040;-44
2020/12/08 09:01:39;;;;;;;11.93;8.05;;;;;;;5.40;72.59;99608.34;4401582;32;33235;-43
2020/12/08 09:04:09;;;;;;;11.70;9.07;;;;;;;5.09;73.34;99603.03;4400769;32;35594;-43
2020/12/08 09:06:36;;;;;;;14.50;8.27;;;;;;;5.20;74.06;99602.78;4391994;32;34625;-48
2020/12/08 09:09:03;;;;;;;9.95;7.28;;;;;;;5.55;72.36;99598.38;4389529;32;32491;-43
2020/12/08 09:11:31;;;;;;;9.43;7.43;;;;;;;5.33;72.48;99601.56;4388547;32;34354;-44
2020/12/08 09:13:59;;;;;;;8.73;7.82;;;;;;;5.02;74.68;99600.59;4384626;32;35054;-41
2020/12/08 09:16:26;;;;;;;9.52;7.15;;;;;;;5.38;73.67;99604.94;4383956;32;34477;-41
2020/12/08 09:18:53;;;;;;;11.40;8.27;;;;;;;5.89;70.83;99593.97;4389866;32;33266;-42
2020/12/08 09:21:23;;;;;;;11.30;8.07;;;;;;;5.08;74.27;99609.19;4377619;32;33775;-41
2020/12/08 09:23:50;;;;;;;10.43;7.50;;;;;;;5.06;74.82;99610.09;4390464;32;32878;-41
2020/12/08 09:26:18;;;;;;;11.65;8.93;;;;;;;5.68;72.28;99620.72;4392147;32;34992;-41
2020/12/08 09:28:46;;;;;;;9.73;8.35;;;;;;;6.18;70.35;99621.16;4376041;32;33982;-41
2020/12/08 09:31:16;;;;;;;10.48;8.27;;;;;;;6.01;70.84;99623.38;4387509;32;33752;-41
2020/12/08 09:33:46;;;;;;;11.57;8.50;;;;;;;5.64;72.34;99630.41;4387367;32;34989;-41
2020/12/08 09:36:19;;;;;;;12.48;7.72;;;;;;;6.18;70.53;99634.25;4389208;32;34362;-41
2020/12/08 09:38:46;;;;;;;13.60;9.88;;;;;;;6.21;70.06;99628.03;4390916;32;33817;-41
2020/12/08 09:41:14;;;;;;;11.25;8.75;;;;;;;5.78;72.53;99621.34;4385860;32;34043;-40
2020/12/08 09:43:41;;;;;;;13.10;10.68;;;;;;;6.21;70.65;99600.06;4383610;32;35054;-41
2020/12/08 09:46:08;;;;;;;16.58;11.80;;;;;;;6.16;70.90;99596.72;4389402;32;34226;-40
2020/12/08 09:48:35;;;;;;;16.12;12.32;;;;;;;6.13;70.97;99596.81;4390879;32;33321;-41
2020/12/08 09:51:03;;;;;;;14.82;11.00;;;;;;;5.79;72.07;99592.50;4386753;32;34744;-40
2020/12/08 09:53:34;;;;;;;16.75;11.20;;;;;;;5.95;72.33;99592.97;4392949;32;34525;-41
2020/12/08 09:56:01;;;;;;;12.98;10.55;;;;;;;5.95;71.69;99599.97;4390270;32;34210;-41
2020/12/08 09:58:28;;;;;;;11.43;9.98;;;;;;;6.10;71.05;99597.75;4384714;32;131011;-41
2020/12/08 10:00:55;;;;;;;14.70;11.35;;;;;;;6.38;70.08;99589.09;4386944;32;33549;-41
2020/12/08 10:03:23;;;;;;;13.15;10.18;;;;;;;6.00;71.48;99605.94;4379815;32;35097;-42
2020/12/08 10:05:50;;;;;;;13.73;9.95;;;;;;;5.68;72.72;99599.78;4374791;32;34962;-41
2020/12/08 10:08:17;;;;;;;19.12;12.07;;;;;;;5.90;71.05;99600.91;4386616;32;33334;-41
2020/12/08 10:10:45;;;;;;;16.25;13.05;;;;;;;5.73;72.93;99605.75;4395606;32;33426;-44
2020/12/08 10:13:14;;;;;;;18.05;13.35;;;;;;;5.85;71.87;99609.81;4400639;32;35475;-41
2020/12/08 10:15:41;;;;;;;16.08;12.65;;;;;;;6.11;72.08;99598.63;4399555;32;34085;-41
2020/12/08 10:18:08;;;;;;;16.37;12.85;;;;;;;6.15;71.86;99592.38;4394261;32;33523;-42
2020/12/08 10:20:36;;;;;;;16.35;12.68;;;;;;;5.56;73.58;99600.97;4387319;32;33927;-41
2020/12/08 10:23:06;;;;;;;15.52;11.73;;;;;;;5.94;71.99;99591.25;4399365;32;34981;-40
2020/12/08 10:25:33;;;;;;;13.62;11.55;;;;;;;6.05;71.48;99598.81;4397862;32;34110;-41
2020/12/08 10:28:00;;;;;;;16.30;11.85;;;;;;;6.15;71.47;99589.75;4404999;32;33384;-42
2020/12/08 10:30:30;;;;;;;15.85;11.80;;;;;;;6.23;70.81;99590.41;4399939;32;33761;-45
2020/12/08 10:32:57;;;;;;;19.05;12.57;;;;;;;5.77;72.29;99598.69;4400803;32;34247;-41
2020/12/08 10:35:25;;;;;;;13.18;10.70;;;;;;;5.67;72.70;99587.59;4388950;32;34389;-41
2020/12/08 10:37:52;;;;;;;13.02;10.85;;;;;;;5.86;72.00;99591.41;4404982;32;33253;-41
2020/12/08 10:40:20;;;;;;;15.27;10.80;;;;;;;5.76;72.79;99589.97;4389926;32;33528;-41
2020/12/08 10:42:47;;;;;;;10.32;8.90;;;;;;;5.93;73.00;99588.66;4403559;32;34811;-41
2020/12/08 10:45:14;;;;;;;12.45;10.30;;;;;;;5.91;72.34;99591.28;4406863;32;33236;-40
2020/12/08 10:47:42;;;;;;;10.43;8.35;;;;;;;5.92;72.65;99597.41;4407332;32;33855;-41
2020/12/08 10:50:13;;;;;;;9.50;7.57;;;;;;;6.08;70.89;99577.75;4406075;32;33643;-41
2020/12/08 10:52:45;;;;;;;8.65;6.93;;;;;;;5.96;71.08;99583.34;4392846;32;34894;-41
2020/12/08 10:55:14;;;;;;;7.70;6.50;;;;;;;6.08;71.00;99576.00;4392546;32;34867;-45
2020/12/08 10:57:44;;;;;;;12.07;6.75;;;;;;;5.83;72.21;99575.78;4407242;32;32528;-41
2020/12/08 11:00:14;;;;;;;8.00;6.03;;;;;;;6.13;72.06;99562.75;4392449;32;34243;-43
2020/12/08 11:02:41;;;;;;;9.73;7.03;;;;;;;6.44;70.24;99567.06;4406481;32;35368;-46
2020/12/08 11:05:08;;;;;;;8.95;6.87;;;;;;;6.49;70.21;99565.16;4406287;32;33932;-43
2020/12/08 11:07:35;;;;;;;6.35;5.62;;;;;;;6.43;69.81;99567.97;4404246;32;33021;-44
2020/12/08 11:10:03;;;;;;;7.85;5.97;;;;;;;6.39;70.20;99562.81;4392972;32;33349;-43
2020/12/08 11:12:30;;;;;;;5.57;5.00;;;;;;;6.44;70.65;99564.44;4405696;32;34979;-43
2020/12/08 11:14:58;;;;;;;5.25;4.75;;;;;;;5.95;71.32;99558.03;4406452;32;33914;-43
2020/12/08 11:17:25;;;;;;;6.10;5.50;;;;;;;6.25;70.19;99557.13;4396810;32;33294;-42
2020/12/08 11:19:52;;;;;;;5.80;5.18;;;;;;;6.12;71.04;99559.28;4393183;32;33850;-42
2020/12/08 11:22:20;;;;;;;10.48;5.35;;;;;;;6.03;71.94;99556.03;4392984;32;35700;-40
2020/12/08 11:24:47;;;;;;;9.75;5.30;;;;;;;6.35;70.63;99563.81;4393399;32;34042;-41
2020/12/08 11:27:16;;;;;;;9.63;5.05;;;;;;;6.24;70.24;99563.28;4393561;32;33083;-43
2020/12/08 11:29:44;;;;;;;4.85;4.20;;;;;;;6.22;70.87;99558.97;4406997;32;34623;-40
2020/12/08 11:32:14;;;;;;;4.80;4.00;;;;;;;6.44;69.16;99554.81;4406615;32;34913;-40
2020/12/08 11:34:43;;;;;;;4.37;3.50;;;;;;;6.61;68.71;99551.66;4405345;32;34539;-42
2020/12/08 11:37:10;;;;;;;5.03;4.15;;;;;;;5.99;70.57;99547.41;4407011;32;33371;-42
2020/12/08 11:39:37;;;;;;;5.32;4.82;;;;;;;6.26;70.75;99545.72;4406647;32;33789;-41
2020/12/08 11:42:07;;;;;;;7.47;4.18;;;;;;;6.59;69.59;99542.97;4391497;32;33827;-40
2020/12/08 11:44:35;;;;;;;4.57;3.92;;;;;;;6.67;69.40;99546.22;4405932;32;34284;-41